createdAt,value
2023-03-30T00:00:30.798Z,4.75
2023-03-30T00:03:19.472Z,4.05
2023-03-30T00:06:08.818Z,4.75
2023-03-30T00:08:57.894Z,4.22
2023-03-30T00:11:45.425Z,3.85
2023-03-30T00:14:31.609Z,3.85
2023-03-30T00:17:18.567Z,4.03
2023-03-30T00:20:10.649Z,4.43
2023-03-30T00:22:58.200Z,4.70
2023-03-30T00:25:45.074Z,4.30
2023-03-30T00:28:32.343Z,4.43
2023-03-30T00:31:19.323Z,3.45
2023-03-30T00:34:05.654Z,3.80
2023-03-30T00:36:53.406Z,3.95
2023-03-30T00:39:41.431Z,4.00
2023-03-30T00:42:27.619Z,3.35
2023-03-30T00:45:22.106Z,3.03
2023-03-30T00:48:12.330Z,2.92
2023-03-30T00:51:02.382Z,2.63
2023-03-30T00:53:52.188Z,3.20
2023-03-30T00:56:39.966Z,2.40
2023-03-30T00:59:26.504Z,2.47
2023-03-30T01:02:13.015Z,2.50
2023-03-30T01:04:59.354Z,2.47
2023-03-30T01:07:46.489Z,2.50
2023-03-30T01:10:33.201Z,2.60
2023-03-30T01:13:21.697Z,2.63
2023-03-30T01:16:18.997Z,2.58
2023-03-30T01:19:29.337Z,2.10
2023-03-30T01:22:44.998Z,3.08
2023-03-30T01:25:47.841Z,2.45
2023-03-30T01:28:46.821Z,2.40
2023-03-30T01:31:50.252Z,2.42
2023-03-30T01:34:52.605Z,2.78
2023-03-30T01:38:08.449Z,2.50
2023-03-30T01:41:05.091Z,2.80
2023-03-30T01:43:56.824Z,2.40
2023-03-30T01:46:48.985Z,2.47
2023-03-30T01:49:42.891Z,2.30
2023-03-30T01:52:36.948Z,2.50
2023-03-30T01:55:27.005Z,2.80
2023-03-30T01:58:22.084Z,2.55
2023-03-30T02:01:10.354Z,2.90
2023-03-30T02:03:59.890Z,2.50
2023-03-30T02:06:50.910Z,2.50
2023-03-30T02:09:43.328Z,2.38
2023-03-30T02:12:30.906Z,2.80
2023-03-30T02:15:20.466Z,2.42
2023-03-30T02:18:06.771Z,2.88
2023-03-30T02:20:53.777Z,2.45
2023-03-30T02:23:45.271Z,2.67
2023-03-30T02:26:32.855Z,2.70
2023-03-30T02:29:21.219Z,1.88
2023-03-30T02:32:18.142Z,3.00
2023-03-30T02:35:22.183Z,2.22
2023-03-30T02:38:41.642Z,2.10
2023-03-30T02:42:01.404Z,1.87
2023-03-30T02:44:58.152Z,1.83
2023-03-30T02:47:58.174Z,1.80
2023-03-30T02:50:51.596Z,1.67
2023-03-30T02:54:06.262Z,1.88
2023-03-30T02:57:15.687Z,1.60
2023-03-30T03:00:10.636Z,2.10
2023-03-30T03:03:05.749Z,1.92
2023-03-30T03:05:54.723Z,1.75
2023-03-30T03:08:49.491Z,1.73
2023-03-30T03:11:41.920Z,1.60
2023-03-30T03:14:29.723Z,1.63
2023-03-30T03:17:22.140Z,1.60
2023-03-30T03:20:11.292Z,1.90
2023-03-30T03:22:57.922Z,1.70
2023-03-30T03:25:44.501Z,2.28
2023-03-30T03:28:32.698Z,1.50
2023-03-30T03:31:27.122Z,1.63
2023-03-30T03:34:13.816Z,1.60
2023-03-30T03:37:27.630Z,1.25
2023-03-30T03:40:14.737Z,1.65
2023-03-30T03:43:01.073Z,1.25
2023-03-30T03:45:47.902Z,1.80
2023-03-30T03:48:34.470Z,1.33
2023-03-30T03:51:21.093Z,1.30
2023-03-30T03:54:09.030Z,1.45
2023-03-30T03:56:55.808Z,1.73
2023-03-30T03:59:42.773Z,1.60
2023-03-30T04:02:29.306Z,1.45
2023-03-30T04:05:16.114Z,5.55
2023-03-30T04:08:02.820Z,1.40
2023-03-30T04:10:50.604Z,1.25
2023-03-30T04:13:43.567Z,1.27
2023-03-30T04:16:59.078Z,1.40
2023-03-30T04:19:59.012Z,1.55
2023-03-30T04:23:02.749Z,1.92
2023-03-30T04:26:22.435Z,1.38
2023-03-30T04:29:10.149Z,1.83
2023-03-30T04:32:21.115Z,1.67
2023-03-30T04:35:34.143Z,1.60
2023-03-30T04:38:42.872Z,1.90
2023-03-30T04:41:41.815Z,1.70
2023-03-30T04:44:42.853Z,1.75
2023-03-30T04:47:55.394Z,2.72
2023-03-30T04:51:13.742Z,1.92
2023-03-30T04:54:19.108Z,2.22
2023-03-30T04:57:22.245Z,3.25
2023-03-30T05:00:31.917Z,2.28
2023-03-30T05:03:37.312Z,2.65
2023-03-30T05:06:34.940Z,3.08
2023-03-30T05:09:50.873Z,2.75
2023-03-30T05:12:57.914Z,3.10
2023-03-30T05:16:04.178Z,3.13
2023-03-30T05:19:05.737Z,3.20
2023-03-30T05:22:11.136Z,3.22
2023-03-30T05:25:15.363Z,3.75
2023-03-30T05:28:11.869Z,3.30
2023-03-30T05:31:27.929Z,3.90
2023-03-30T05:34:33.700Z,3.70
2023-03-30T05:37:30.725Z,4.65
2023-03-30T05:40:36.484Z,3.67
2023-03-30T05:43:39.109Z,4.40
2023-03-30T05:46:54.651Z,3.47
2023-03-30T05:50:00.052Z,3.22
2023-03-30T05:52:54.598Z,3.70
2023-03-30T05:55:46.769Z,3.70
2023-03-30T05:58:53.525Z,4.43
2023-03-30T06:01:58.897Z,3.42
2023-03-30T06:04:46.313Z,4.28
2023-03-30T06:07:32.980Z,3.95
2023-03-30T06:10:20.685Z,3.97
2023-03-30T06:13:07.870Z,3.70
2023-03-30T06:16:04.874Z,3.83
2023-03-30T06:18:51.387Z,3.67
2023-03-30T06:21:38.233Z,3.72
2023-03-30T06:24:41.053Z,3.67
2023-03-30T06:27:28.424Z,3.97
2023-03-30T06:30:16.019Z,3.35
2023-03-30T06:33:07.965Z,2.65
2023-03-30T06:36:02.667Z,3.40
2023-03-30T06:38:49.647Z,2.70
2023-03-30T06:41:37.587Z,3.63
2023-03-30T06:44:24.267Z,3.10
2023-03-30T06:47:11.086Z,3.13
2023-03-30T06:49:59.188Z,4.18
2023-03-30T06:53:08.223Z,2.70
2023-03-30T06:56:15.316Z,3.30
2023-03-30T06:59:28.470Z,4.15
2023-03-30T07:02:46.272Z,3.35
2023-03-30T07:06:07.299Z,3.95
2023-03-30T07:09:19.908Z,3.78
2023-03-30T07:12:13.806Z,3.05
2023-03-30T07:15:12.380Z,3.63
2023-03-30T07:18:18.079Z,3.17
2023-03-30T07:21:21.326Z,3.78
2023-03-30T07:24:19.528Z,3.70
2023-03-30T07:30:22.181Z,3.50
2023-03-30T07:33:30.960Z,3.67
2023-03-30T07:36:34.430Z,4.38
2023-03-30T07:39:33.974Z,4.95
2023-03-30T07:42:48.697Z,4.25
2023-03-30T07:45:56.203Z,3.85
2023-03-30T07:49:09.358Z,3.47
2023-03-30T07:52:16.325Z,3.30
2023-03-30T07:55:21.622Z,3.35
2023-03-30T07:58:33.375Z,3.65
2023-03-30T08:01:42.400Z,3.80
2023-03-30T08:05:10.529Z,3.85
2023-03-30T08:08:24.212Z,3.83
2023-03-30T08:11:23.939Z,4.03
2023-03-30T08:14:30.366Z,3.88
2023-03-30T08:17:23.504Z,3.95
2023-03-30T08:20:19.826Z,4.60
2023-03-30T08:23:19.530Z,4.13
2023-03-30T08:26:14.205Z,3.80
2023-03-30T08:29:10.538Z,4.57
2023-03-30T08:32:14.504Z,4.18
2023-03-30T08:35:15.905Z,4.63
2023-03-30T08:38:13.773Z,4.03
2023-03-30T08:41:43.902Z,3.65
2023-03-30T08:44:42.088Z,3.80
2023-03-30T08:47:48.843Z,3.60
2023-03-30T08:50:57.892Z,3.70
2023-03-30T08:54:02.776Z,3.80
2023-03-30T08:57:10.860Z,4.32
2023-03-30T09:00:21.702Z,3.47
2023-03-30T09:03:42.326Z,3.40
2023-03-30T09:07:22.593Z,4.50
2023-03-30T09:10:23.118Z,6.38
2023-03-30T09:13:31.738Z,4.88
2023-03-30T09:16:48.268Z,4.55
2023-03-30T09:19:58.095Z,4.50
2023-03-30T09:22:57.628Z,5.80
2023-03-30T09:26:15.854Z,5.65
2023-03-30T09:29:32.881Z,4.88
2023-03-30T09:32:41.731Z,4.15
2023-03-30T09:36:13.629Z,4.28
2023-03-30T09:39:20.453Z,4.00
2023-03-30T09:42:41.583Z,4.65
2023-03-30T09:45:53.376Z,5.53
2023-03-30T09:48:49.493Z,5.35
2023-03-30T09:52:00.395Z,5.03
2023-03-30T09:55:08.493Z,4.38
2023-03-30T09:58:34.203Z,4.85
2023-03-30T10:01:41.528Z,4.97
2023-03-30T10:05:02.766Z,5.30
2023-03-30T10:08:09.324Z,4.75
2023-03-30T10:11:10.551Z,4.93
2023-03-30T10:14:10.096Z,5.10
2023-03-30T10:16:59.021Z,4.63
2023-03-30T10:19:49.389Z,5.38
2023-03-30T10:22:38.426Z,5.22
2023-03-30T10:25:29.454Z,5.00
2023-03-30T10:28:21.923Z,4.90
2023-03-30T10:31:16.558Z,5.40
2023-03-30T10:34:07.989Z,3.97
2023-03-30T10:36:57.607Z,4.57
2023-03-30T10:39:46.976Z,4.10
2023-03-30T10:42:34.488Z,5.55
2023-03-30T10:45:23.434Z,4.07
2023-03-30T10:48:25.383Z,4.60
2023-03-30T10:51:18.891Z,4.57
2023-03-30T10:54:12.506Z,5.05
2023-03-30T10:57:04.001Z,4.55
2023-03-30T11:00:11.024Z,5.43
2023-03-30T11:03:04.177Z,5.90
2023-03-30T11:05:55.369Z,3.60
2023-03-30T11:08:47.119Z,3.92
2023-03-30T11:11:38.631Z,4.00
2023-03-30T11:14:31.857Z,4.10
2023-03-30T11:17:23.705Z,3.78
2023-03-30T11:20:23.575Z,4.65
2023-03-30T11:23:20.748Z,4.35
2023-03-30T11:26:12.482Z,4.03
2023-03-30T11:29:07.047Z,4.78
2023-03-30T11:32:00.684Z,4.10
2023-03-30T11:34:59.553Z,3.72
2023-03-30T11:37:52.053Z,3.83
2023-03-30T11:40:43.970Z,4.25
2023-03-30T11:43:32.532Z,3.92
2023-03-30T11:46:28.209Z,4.53
2023-03-30T11:49:26.394Z,3.50
2023-03-30T11:52:24.698Z,3.78
2023-03-30T11:55:28.712Z,3.28
2023-03-30T11:58:26.526Z,4.43
2023-03-30T12:01:33.213Z,4.07
2023-03-30T12:04:27.667Z,3.95
2023-03-30T12:07:27.922Z,4.22
2023-03-30T12:10:19.898Z,4.07
2023-03-30T12:13:06.854Z,4.22
2023-03-30T12:15:59.694Z,5.00
2023-03-30T12:19:06.026Z,5.85
2023-03-30T12:21:56.371Z,4.72
2023-03-30T12:24:50.707Z,3.80
2023-03-30T12:27:38.713Z,4.93
2023-03-30T12:30:29.580Z,4.55
2023-03-30T12:33:20.221Z,4.15
2023-03-30T12:36:25.973Z,4.40
2023-03-30T12:39:21.759Z,4.43
2023-03-30T12:42:11.701Z,5.63
2023-03-30T12:45:21.100Z,4.40
2023-03-30T12:48:24.856Z,3.75
2023-03-30T12:51:19.292Z,3.65
2023-03-30T12:54:39.007Z,4.88
2023-03-30T12:57:40.903Z,4.57
2023-03-30T13:01:09.701Z,4.50
2023-03-30T13:04:00.137Z,4.28
2023-03-30T13:06:53.948Z,4.70
2023-03-30T13:09:55.127Z,4.63
2023-03-30T13:12:43.199Z,4.07
2023-03-30T13:15:48.641Z,4.88
2023-03-30T13:18:41.981Z,4.88
2023-03-30T13:21:29.024Z,4.20
2023-03-30T13:24:41.227Z,4.28
2023-03-30T13:27:31.771Z,3.78
2023-03-30T13:30:18.688Z,4.88
2023-03-30T13:33:12.721Z,4.05
2023-03-30T13:36:06.677Z,4.15
2023-03-30T13:39:05.065Z,4.50
2023-03-30T13:42:04.186Z,4.97
2023-03-30T13:45:08.502Z,3.75
2023-03-30T13:48:05.082Z,4.15
2023-03-30T13:50:58.250Z,4.35
2023-03-30T13:54:01.040Z,3.53
2023-03-30T13:56:51.115Z,3.95
2023-03-30T13:59:44.066Z,4.10
2023-03-30T14:02:31.590Z,4.35
2023-03-30T14:05:21.592Z,4.85
2023-03-30T14:08:11.251Z,4.57
2023-03-30T14:10:57.735Z,5.97
2023-03-30T14:13:46.082Z,3.53
2023-03-30T14:16:36.715Z,3.25
2023-03-30T14:19:27.353Z,3.85
2023-03-30T14:22:20.221Z,3.60
2023-03-30T14:25:22.148Z,4.07
2023-03-30T14:28:14.647Z,4.00
2023-03-30T14:31:04.800Z,4.38
2023-03-30T14:33:52.924Z,4.53
2023-03-30T14:36:39.406Z,3.55
2023-03-30T14:39:26.360Z,4.28
2023-03-30T14:42:18.623Z,3.40
2023-03-30T14:45:09.214Z,3.15
2023-03-30T14:47:56.590Z,4.60
2023-03-30T14:50:46.630Z,4.32
2023-03-30T14:53:33.274Z,3.13
2023-03-30T14:56:20.797Z,3.22
2023-03-30T14:59:08.417Z,2.88
2023-03-30T15:01:56.344Z,2.75
2023-03-30T15:04:42.643Z,3.50
2023-03-30T15:07:32.871Z,3.65
2023-03-30T15:10:26.559Z,3.65
2023-03-30T15:13:21.606Z,3.65
2023-03-30T15:16:08.738Z,3.40
2023-03-30T15:19:02.578Z,3.15
2023-03-30T15:21:55.007Z,3.67
2023-03-30T15:24:43.424Z,3.38
2023-03-30T15:27:30.984Z,3.90
2023-03-30T15:30:29.529Z,3.83
2023-03-30T15:33:25.377Z,3.55
2023-03-30T15:36:14.079Z,3.63
2023-03-30T15:39:01.218Z,3.40
2023-03-30T15:41:50.740Z,3.78
2023-03-30T15:44:39.059Z,3.40
2023-03-30T15:47:25.329Z,4.45
2023-03-30T15:50:14.342Z,3.42
2023-03-30T15:53:02.445Z,6.75
2023-03-30T15:55:53.024Z,4.10
2023-03-30T15:58:41.516Z,2.35
2023-03-30T16:01:48.568Z,3.38
2023-03-30T16:04:35.669Z,2.47
2023-03-30T16:07:25.268Z,2.72
2023-03-30T16:10:14.636Z,2.70
2023-03-30T16:13:02.447Z,2.60
2023-03-30T16:15:52.250Z,2.83
2023-03-30T16:18:41.233Z,2.38
2023-03-30T16:21:29.406Z,3.10
2023-03-30T16:24:16.577Z,3.75
2023-03-30T16:27:05.126Z,3.83
2023-03-30T16:29:51.372Z,2.95
2023-03-30T16:32:39.966Z,3.00
2023-03-30T16:35:31.532Z,2.72
2023-03-30T16:38:19.483Z,3.22
2023-03-30T16:41:06.915Z,2.75
2023-03-30T16:43:53.349Z,2.90
2023-03-30T16:46:42.452Z,2.90
2023-03-30T16:49:30.659Z,3.05
2023-03-30T16:52:16.625Z,3.38
2023-03-30T16:55:02.854Z,3.13
2023-03-30T16:57:49.737Z,3.55
2023-03-30T17:00:41.082Z,3.03
2023-03-30T17:03:28.785Z,3.90
2023-03-30T17:06:17.024Z,3.83
2023-03-30T17:09:03.812Z,2.78
2023-03-30T17:11:50.944Z,3.60
2023-03-30T17:14:37.573Z,2.92
2023-03-30T17:17:23.946Z,3.88
2023-03-30T17:20:31.519Z,3.22
2023-03-30T17:23:19.860Z,3.65
2023-03-30T17:26:07.690Z,3.55
2023-03-30T17:28:54.389Z,3.17
2023-03-30T17:31:45.324Z,3.90
2023-03-30T17:34:32.231Z,3.80
2023-03-30T17:37:19.865Z,3.83
2023-03-30T17:40:16.460Z,3.53
2023-03-30T17:43:02.953Z,2.80
2023-03-30T17:45:50.067Z,3.83
2023-03-30T17:48:36.971Z,2.83
2023-03-30T17:51:23.106Z,2.85
2023-03-30T17:54:09.749Z,2.55
2023-03-30T17:56:57.785Z,3.50
2023-03-30T17:59:51.176Z,3.50
2023-03-30T18:02:38.389Z,3.60
2023-03-30T18:05:27.508Z,4.28
2023-03-30T18:08:17.469Z,4.50
2023-03-30T18:11:05.774Z,4.45
2023-03-30T18:13:54.755Z,3.60
2023-03-30T18:16:43.794Z,3.95
2023-03-30T18:19:30.419Z,3.60
2023-03-30T18:22:17.253Z,3.50
2023-03-30T18:25:04.615Z,4.55
2023-03-30T18:27:51.918Z,6.03
2023-03-30T18:30:40.337Z,4.65
2023-03-30T18:33:27.129Z,3.60
2023-03-30T18:36:15.042Z,3.80
2023-03-30T18:39:02.561Z,3.58
2023-03-30T18:41:54.950Z,4.00
2023-03-30T18:44:45.759Z,3.25
2023-03-30T18:47:34.002Z,4.53
2023-03-30T18:50:23.695Z,3.33
2023-03-30T18:53:11.587Z,3.80
2023-03-30T18:56:00.719Z,3.85
2023-03-30T18:58:47.789Z,4.25
2023-03-30T19:01:34.919Z,4.28
2023-03-30T19:04:22.781Z,4.03
2023-03-30T19:07:11.053Z,3.33
2023-03-30T19:09:57.337Z,4.20
2023-03-30T19:12:44.179Z,4.63
2023-03-30T19:15:32.995Z,7.03
2023-03-30T19:18:20.189Z,3.67
2023-03-30T19:21:10.832Z,4.15
2023-03-30T19:26:43.701Z,3.78
2023-03-30T19:29:30.146Z,4.93
2023-03-30T19:32:16.723Z,5.18
2023-03-30T19:35:03.357Z,3.45
2023-03-30T19:37:51.461Z,4.72
2023-03-30T19:40:38.840Z,4.82
2023-03-30T19:43:25.525Z,4.30
2023-03-30T19:46:11.489Z,6.32
2023-03-30T19:48:58.191Z,4.15
2023-03-30T19:51:44.473Z,3.67
2023-03-30T19:54:32.366Z,4.65
2023-03-30T19:57:19.116Z,4.57
2023-03-30T20:00:12.550Z,3.58
2023-03-30T20:02:59.230Z,3.90
2023-03-30T20:05:50.366Z,3.55
2023-03-30T20:08:38.009Z,4.32
2023-03-30T20:11:26.094Z,3.53
2023-03-30T20:14:12.966Z,3.30
2023-03-30T20:17:00.354Z,4.22
2023-03-30T20:19:46.753Z,3.53
2023-03-30T20:22:33.477Z,4.65
2023-03-30T20:25:22.232Z,4.53
2023-03-30T20:28:09.882Z,3.40
2023-03-30T20:30:56.959Z,3.92
2023-03-30T20:33:43.720Z,3.58
2023-03-30T20:36:33.088Z,3.28
2023-03-30T20:39:22.208Z,3.67
2023-03-30T20:42:09.405Z,3.55
2023-03-30T20:44:57.698Z,3.40
2023-03-30T20:47:50.018Z,2.90
2023-03-30T20:50:37.036Z,3.15
2023-03-30T20:53:23.841Z,3.90
2023-03-30T20:56:11.805Z,3.45
2023-03-30T20:58:58.517Z,2.63
2023-03-30T21:01:47.098Z,2.53
2023-03-30T21:04:34.187Z,3.90
2023-03-30T21:07:24.520Z,3.15
2023-03-30T21:10:11.221Z,5.97
2023-03-30T21:12:57.701Z,3.92
2023-03-30T21:15:44.093Z,3.72
2023-03-30T21:18:31.893Z,3.13
2023-03-30T21:21:18.107Z,3.08
2023-03-30T21:24:05.719Z,4.30
2023-03-30T21:26:52.291Z,2.97
2023-03-30T21:29:38.726Z,3.53
2023-03-30T21:32:25.405Z,3.40
2023-03-30T21:35:12.885Z,3.75
2023-03-30T21:38:00.100Z,2.90
2023-03-30T21:41:00.974Z,3.28
2023-03-30T21:43:48.146Z,3.45
2023-03-30T21:46:34.355Z,3.90
2023-03-30T21:49:20.846Z,3.40
2023-03-30T21:52:08.630Z,4.18
2023-03-30T21:54:54.907Z,2.90
2023-03-30T21:57:41.149Z,3.70
2023-03-30T22:00:27.319Z,3.58
2023-03-30T22:03:13.832Z,3.33
2023-03-30T22:06:01.721Z,3.17
2023-03-30T22:08:49.641Z,3.58
2023-03-30T22:11:36.139Z,3.47
2023-03-30T22:14:22.813Z,3.58
2023-03-30T22:17:11.320Z,3.75
2023-03-30T22:19:58.386Z,3.40
2023-03-30T22:22:45.465Z,3.20
2023-03-30T22:25:33.162Z,3.70
2023-03-30T22:28:19.655Z,4.47
2023-03-30T22:31:08.096Z,3.63
2023-03-30T22:33:54.912Z,3.30
2023-03-30T22:36:42.257Z,3.65
2023-03-30T22:39:28.882Z,5.15
2023-03-30T22:42:16.822Z,3.15
2023-03-30T22:45:03.544Z,3.53
2023-03-30T22:47:50.205Z,3.25
2023-03-30T22:50:37.049Z,2.85
2023-03-30T22:53:23.561Z,3.90
2023-03-30T22:56:09.896Z,3.72
2023-03-30T22:58:58.339Z,3.85
2023-03-30T23:01:44.467Z,3.97
2023-03-30T23:04:30.971Z,3.50
2023-03-30T23:07:17.442Z,3.50
2023-03-30T23:10:04.131Z,4.70
2023-03-30T23:12:50.937Z,3.25
2023-03-30T23:15:38.511Z,4.20
2023-03-30T23:18:24.797Z,3.47
2023-03-30T23:21:13.834Z,4.13
2023-03-30T23:24:00.385Z,3.67
2023-03-30T23:26:47.621Z,3.38
2023-03-30T23:29:34.049Z,3.45
2023-03-30T23:32:21.918Z,3.58
2023-03-30T23:35:08.890Z,3.55
2023-03-30T23:37:55.178Z,3.20
2023-03-30T23:40:41.803Z,3.35
2023-03-30T23:43:28.742Z,4.00
2023-03-30T23:46:15.597Z,3.88
2023-03-30T23:49:04.233Z,3.55
2023-03-30T23:51:50.525Z,4.13
2023-03-30T23:54:40.838Z,3.90
2023-03-30T23:57:27.282Z,5.05
